createdAt,value
2023-02-06T00:07:12.760Z,103571.38
2023-02-06T00:14:46.812Z,103560.56
2023-02-06T00:22:21.993Z,103578.16
2023-02-06T00:29:55.847Z,103589.69
2023-02-06T00:37:31.179Z,103590.50
2023-02-06T00:45:05.562Z,103586.72
2023-02-06T00:52:40.786Z,103594.03
2023-02-06T01:00:15.848Z,103588.97
2023-02-06T01:07:51.272Z,103578.88
2023-02-06T01:15:25.301Z,103577.44
2023-02-06T01:23:01.650Z,103576.50
2023-02-06T01:30:35.520Z,103583.56
2023-02-06T01:38:10.924Z,103576.94
2023-02-06T01:45:46.632Z,103558.66
2023-02-06T01:53:22.861Z,103542.81
2023-02-06T02:00:57.982Z,103540.03
2023-02-06T02:08:38.160Z,103537.06
2023-02-06T02:16:16.181Z,103522.91
2023-02-06T02:23:58.642Z,103511.34
2023-02-06T02:32:15.856Z,103503.75
2023-02-06T02:39:59.398Z,103498.53
2023-02-06T02:47:42.691Z,103487.66
2023-02-06T02:55:23.631Z,103483.72
2023-02-06T03:02:59.469Z,103477.91
2023-02-06T03:10:43.968Z,103474.69
2023-02-06T03:18:21.194Z,103487.28
2023-02-06T03:26:00.177Z,103492.59
2023-02-06T03:33:39.028Z,103463.84
2023-02-06T03:41:16.255Z,103473.66
2023-02-06T03:48:53.978Z,103459.56
2023-02-06T03:56:36.541Z,103466.59
2023-02-06T04:04:10.404Z,103473.47
2023-02-06T04:11:45.632Z,103473.00
2023-02-06T04:19:19.486Z,103471.72
2023-02-06T04:26:55.326Z,103472.91
2023-02-06T04:34:29.649Z,103465.56
2023-02-06T04:42:05.353Z,103443.59
2023-02-06T04:49:39.377Z,103440.56
2023-02-06T04:57:14.595Z,103431.34
2023-02-06T05:04:48.505Z,103439.84
2023-02-06T05:12:24.674Z,103430.81
2023-02-06T05:19:58.696Z,103426.97
2023-02-06T05:27:34.250Z,103441.66
2023-02-06T05:35:08.801Z,103424.00
2023-02-06T05:42:44.281Z,103425.44
2023-02-06T05:50:18.181Z,103433.78
2023-02-06T05:57:53.363Z,103434.06
2023-02-06T06:05:27.524Z,103423.34
2023-02-06T06:13:02.936Z,103442.31
2023-02-06T06:20:36.991Z,103454.34
2023-02-06T06:28:12.204Z,103462.88
2023-02-06T06:35:45.912Z,103458.44
2023-02-06T06:43:22.037Z,103450.00
2023-02-06T06:50:55.829Z,103442.00
2023-02-06T06:58:30.853Z,103438.09
2023-02-06T07:06:05.225Z,103427.75
2023-02-06T07:13:40.430Z,103436.34
2023-02-06T07:21:15.964Z,103442.84
2023-02-06T07:28:53.139Z,103437.03
2023-02-06T07:36:27.050Z,103455.59
2023-02-06T07:44:02.061Z,103466.28
2023-02-06T07:51:35.888Z,103470.47
2023-02-06T07:59:10.916Z,103447.38
2023-02-06T08:06:46.877Z,103441.50
2023-02-06T08:14:22.097Z,103443.50
2023-02-06T08:21:55.919Z,103440.72
2023-02-06T08:29:32.396Z,103436.59
2023-02-06T08:37:06.373Z,103445.56
2023-02-06T08:44:41.416Z,103436.59
2023-02-06T08:52:15.376Z,103442.94
2023-02-06T08:59:52.268Z,103440.94
2023-02-06T09:07:26.281Z,103439.13
2023-02-06T09:15:01.658Z,103447.31
2023-02-06T09:22:35.972Z,103450.88
2023-02-06T09:30:13.647Z,103464.47
2023-02-06T09:37:47.857Z,103476.38
2023-02-06T09:45:24.932Z,103492.13
2023-02-06T09:53:15.225Z,103488.88
2023-02-06T10:00:54.690Z,103469.44
2023-02-06T10:08:34.444Z,103476.06
2023-02-06T10:16:26.644Z,103486.44
2023-02-06T10:24:09.505Z,103509.28
2023-02-06T10:31:56.779Z,103501.41
2023-02-06T10:39:43.076Z,103484.88
2023-02-06T10:47:31.252Z,103478.66
2023-02-06T10:55:18.289Z,103452.84
2023-02-06T11:03:07.221Z,103477.41
2023-02-06T11:10:41.996Z,103464.75
2023-02-06T11:18:21.694Z,103492.88
2023-02-06T11:26:06.780Z,103480.47
2023-02-06T11:33:47.554Z,103486.03
2023-02-06T11:41:22.487Z,103502.88
2023-02-06T11:49:07.089Z,103494.56
2023-02-06T11:56:41.029Z,103498.56
2023-02-06T12:04:23.866Z,103503.69
2023-02-06T12:12:01.523Z,103504.56
2023-02-06T12:19:45.651Z,103509.09
2023-02-06T12:27:23.383Z,103509.53
2023-02-06T12:35:02.472Z,103515.56
2023-02-06T12:42:40.783Z,103527.34
2023-02-06T12:50:21.837Z,103527.78
2023-02-06T12:57:57.906Z,103523.59
2023-02-06T13:05:37.831Z,103543.09
2023-02-06T13:13:28.059Z,103536.59
2023-02-06T13:21:21.181Z,103541.69
2023-02-06T13:28:59.982Z,103540.16
2023-02-06T13:36:55.624Z,103551.44
2023-02-06T13:44:33.325Z,103552.66
2023-02-06T13:52:19.997Z,103557.94
2023-02-06T13:59:58.756Z,103567.63
2023-02-06T14:07:50.989Z,103574.91
2023-02-06T14:15:32.747Z,103580.94
2023-02-06T14:23:18.472Z,103584.34
2023-02-06T14:31:00.091Z,103593.31
2023-02-06T14:39:08.240Z,103590.84
2023-02-06T14:46:43.583Z,103617.00
2023-02-06T14:54:31.197Z,103638.34
2023-02-06T15:02:15.885Z,103644.22
2023-02-06T15:09:58.336Z,103644.53
2023-02-06T15:17:34.572Z,103645.94
2023-02-06T15:25:24.690Z,103649.31
2023-02-06T15:33:01.604Z,103659.38
2023-02-06T15:40:38.135Z,103682.75
2023-02-06T15:48:18.915Z,103677.31
2023-02-06T15:55:56.566Z,103696.22
2023-02-06T16:03:32.604Z,103710.25
2023-02-06T16:11:30.247Z,103711.47
2023-02-06T16:19:30.070Z,103711.44
2023-02-06T16:27:17.406Z,103719.16
2023-02-06T16:40:27.826Z,103706.91
2023-02-06T16:48:01.836Z,103734.38
2023-02-06T16:55:36.909Z,103747.63
2023-02-06T17:03:13.161Z,103754.69
2023-02-06T17:10:50.047Z,103754.38
2023-02-06T17:18:24.798Z,103769.47
2023-02-06T17:26:00.606Z,103771.91
2023-02-06T17:33:34.692Z,103778.00
2023-02-06T17:41:09.970Z,103780.91
2023-02-06T17:48:44.548Z,103781.44
2023-02-06T17:56:21.124Z,103791.13
2023-02-06T18:03:55.038Z,103782.59
2023-02-06T18:11:30.397Z,103794.56
2023-02-06T18:19:04.401Z,103780.78
2023-02-06T18:26:40.433Z,103774.06
2023-02-06T18:34:14.448Z,103760.91
2023-02-06T18:42:07.530Z,103770.88
2023-02-06T18:49:41.799Z,103762.00
2023-02-06T18:57:17.225Z,103777.84
2023-02-06T19:04:51.163Z,103779.59
2023-02-06T19:12:28.251Z,103796.00
2023-02-06T19:20:02.504Z,103788.31
2023-02-06T19:27:38.738Z,103795.66
2023-02-06T19:35:13.085Z,103800.38
2023-02-06T19:42:48.415Z,103822.38
2023-02-06T19:50:22.322Z,103831.22
2023-02-06T19:57:58.346Z,103827.34
2023-02-06T20:05:33.993Z,103839.13
2023-02-06T20:13:09.493Z,103819.16
2023-02-06T20:20:43.440Z,103849.16
2023-02-06T20:28:19.911Z,103824.19
2023-02-06T20:35:53.822Z,103827.59
2023-02-06T20:43:29.060Z,103830.63
2023-02-06T20:51:05.251Z,103832.88
2023-02-06T20:58:40.613Z,103834.44
2023-02-06T21:06:14.902Z,103836.16
2023-02-06T21:13:50.138Z,103836.22
2023-02-06T21:21:25.670Z,103861.06
2023-02-06T21:29:02.875Z,103867.31
2023-02-06T21:36:39.116Z,103863.78
2023-02-06T21:44:14.801Z,103867.16
2023-02-06T21:51:49.732Z,103856.94
2023-02-06T21:59:25.079Z,103839.94
2023-02-06T22:06:59.113Z,103845.56
2023-02-06T22:14:34.920Z,103873.22
2023-02-06T22:22:08.716Z,103870.84
2023-02-06T22:29:44.302Z,103866.03
2023-02-06T22:37:18.538Z,103871.59
2023-02-06T22:44:53.846Z,103887.88
2023-02-06T22:52:46.007Z,103863.03
2023-02-06T23:00:21.777Z,103889.38
2023-02-06T23:07:55.686Z,103895.72
2023-02-06T23:15:31.063Z,103903.56
2023-02-06T23:23:05.630Z,103887.69
2023-02-06T23:30:41.994Z,103896.09
2023-02-06T23:38:15.870Z,103899.66
2023-02-06T23:45:51.079Z,103919.78
2023-02-06T23:53:25.021Z,103902.63
